createdAt,value
2022-11-16T00:01:24.394Z,101026.44
2022-11-16T00:03:56.363Z,101028.09
2022-11-16T00:06:26.937Z,101033.59
2022-11-16T00:09:21.855Z,101033.59
2022-11-16T00:11:57.326Z,101044.34
2022-11-16T00:14:29.952Z,101044.34
2022-11-16T00:17:01.747Z,101062.03
2022-11-16T00:19:32.572Z,101061.69
2022-11-16T00:22:02.767Z,101069.97
2022-11-16T00:24:32.860Z,101066.09
2022-11-16T00:27:03.152Z,101071.59
2022-11-16T00:29:33.368Z,101079.88
2022-11-16T00:32:03.642Z,101076.31
2022-11-16T00:34:34.685Z,101086.53
2022-11-16T00:37:04.967Z,101081.00
2022-11-16T00:39:36.174Z,101088.50
2022-11-16T00:42:06.633Z,101090.13
2022-11-16T00:44:36.898Z,101089.63
2022-11-16T00:47:07.270Z,101098.69
2022-11-16T00:49:37.580Z,101105.84
2022-11-16T00:52:07.820Z,101105.84
2022-11-16T00:54:38.797Z,101104.72
2022-11-16T00:57:09.006Z,101111.88
2022-11-16T00:59:39.779Z,101113.50
2022-11-16T01:02:09.991Z,101118.22
2022-11-16T01:04:43.371Z,101116.25
2022-11-16T01:07:14.058Z,101128.13
2022-11-16T01:09:44.448Z,101119.53
2022-11-16T01:12:15.050Z,101121.97
2022-11-16T01:14:47.190Z,101130.56
2022-11-16T01:17:18.182Z,101134.97
2022-11-16T01:19:48.446Z,101131.09
2022-11-16T01:22:18.687Z,101138.22
2022-11-16T01:24:49.626Z,101145.69
2022-11-16T01:27:19.844Z,101150.91
2022-11-16T01:29:49.940Z,101153.66
2022-11-16T01:32:20.547Z,101147.31
2022-11-16T01:34:51.855Z,101155.59
2022-11-16T01:37:32.871Z,101158.06
2022-11-16T01:40:03.288Z,101168.28
2022-11-16T01:42:35.740Z,101169.09
2022-11-16T01:45:18.533Z,101169.91
2022-11-16T01:47:50.017Z,101177.84
2022-11-16T01:50:23.952Z,101177.84
2022-11-16T01:53:03.349Z,101169.59
2022-11-16T11:59:33.741Z,100805.66
2022-11-16T12:02:11.017Z,100798.69
2022-11-16T12:05:02.923Z,100798.06
2022-11-16T12:07:49.909Z,100808.00
2022-11-16T12:10:48.776Z,100799.25
2022-11-16T12:13:55.680Z,100810.97
2022-11-16T12:17:00.651Z,100807.94
2022-11-16T12:19:44.635Z,100809.34
2022-11-16T12:22:40.978Z,100817.16
2022-11-16T12:25:20.789Z,100818.00
2022-11-16T12:27:53.690Z,100827.75
2022-11-16T12:30:26.128Z,100831.47
2022-11-16T12:33:08.329Z,100827.09
2022-11-16T12:35:58.522Z,100834.06
2022-11-16T12:38:37.784Z,100837.19
2022-11-16T12:41:28.788Z,100840.75
2022-11-16T12:44:14.989Z,100845.13
2022-11-16T12:47:24.923Z,100853.75
2022-11-16T12:50:07.440Z,100854.06
2022-11-16T12:53:09.077Z,100860.44
2022-11-16T12:56:07.355Z,100870.69
2022-11-16T12:58:55.945Z,100870.03
2022-11-16T13:01:39.309Z,100876.00
2022-11-16T13:04:24.060Z,100891.09
2022-11-16T13:07:11.389Z,100896.97
2022-11-16T13:09:51.103Z,100901.88
2022-11-16T13:15:21.576Z,100917.25
2022-11-16T13:18:17.815Z,100920.50
2022-11-16T13:20:52.653Z,100930.22
2022-11-16T13:23:34.679Z,100923.28
2022-11-16T13:26:12.744Z,100928.00
2022-11-16T13:28:54.725Z,100936.28
2022-11-16T13:31:34.010Z,100941.50
2022-11-16T13:34:18.415Z,100938.88
2022-11-16T13:36:49.981Z,100942.44
2022-11-16T13:39:43.806Z,100949.94
2022-11-16T13:42:17.083Z,100965.84
2022-11-16T13:44:51.518Z,100961.22
2022-11-16T13:47:29.904Z,100964.63
2022-11-16T13:50:06.715Z,100969.75
2022-11-16T13:55:48.960Z,100989.69
2022-11-16T13:58:25.487Z,100987.09
2022-11-16T14:01:10.125Z,100998.63
2022-11-16T14:03:49.254Z,100997.50
2022-11-16T14:06:22.607Z,101002.88
2022-11-16T14:08:57.601Z,101012.13
2022-11-16T14:11:42.539Z,101011.66
2022-11-16T14:14:15.821Z,101020.41
2022-11-16T14:16:47.947Z,101011.66
2022-11-16T14:19:47.461Z,101023.53
2022-11-16T14:22:23.874Z,101020.59
2022-11-16T14:25:10.388Z,101017.69
2022-11-16T14:28:21.939Z,101019.19
2022-11-16T14:31:04.176Z,101019.44
2022-11-16T14:33:38.439Z,101015.72
2022-11-16T14:36:12.219Z,101030.50
2022-11-16T14:38:47.443Z,101030.13
2022-11-16T14:41:27.241Z,101031.25
2022-11-16T14:44:00.646Z,101035.16
2022-11-16T14:46:35.777Z,101045.69
2022-11-16T14:49:07.106Z,101044.56
2022-11-16T14:51:39.384Z,101039.22
2022-11-16T14:54:42.838Z,101049.63
2022-11-16T14:57:21.027Z,101047.03
2022-11-16T14:59:52.376Z,101049.19
2022-11-16T15:02:28.163Z,101055.50
2022-11-16T15:04:58.449Z,101061.63
2022-11-16T15:07:31.002Z,101054.41
2022-11-16T15:10:02.887Z,101060.06
2022-11-16T15:12:46.815Z,101062.81
2022-11-16T15:15:22.211Z,101055.50
2022-11-16T15:18:01.702Z,101050.09
2022-11-16T15:20:36.012Z,101056.75
2022-11-16T15:23:08.146Z,101056.75
2022-11-16T15:25:44.415Z,101059.00
2022-11-16T15:28:25.831Z,101058.50
2022-11-16T15:30:57.383Z,101057.38
2022-11-16T15:33:39.695Z,101054.94
2022-11-16T15:36:33.885Z,101054.94
2022-11-16T15:39:06.539Z,101058.81
2022-11-16T15:41:39.354Z,101056.38
2022-11-16T15:44:15.521Z,101047.78
2022-11-16T15:46:52.665Z,101058.00
2022-11-16T15:49:32.429Z,101057.69
2022-11-16T15:52:03.436Z,101048.59
2022-11-16T15:54:55.823Z,101044.22
2022-11-16T15:57:27.061Z,101039.81
2022-11-16T16:00:02.187Z,101039.81
2022-11-16T16:02:34.878Z,101036.56
2022-11-16T16:05:05.098Z,101035.41
2022-11-16T16:07:43.501Z,101031.03
2022-11-16T16:10:26.483Z,101022.22
2022-11-16T16:12:59.674Z,101022.75
2022-11-16T16:15:33.970Z,101018.31
2022-11-16T16:18:06.604Z,101017.50
2022-11-16T16:20:37.063Z,101010.34
2022-11-16T16:23:13.822Z,101013.94
2022-11-16T16:25:50.120Z,101018.63
2022-11-16T16:28:20.859Z,101017.81
2022-11-16T16:30:54.834Z,101010.66
2022-11-16T16:33:30.685Z,101010.66
2022-11-16T16:36:01.028Z,101007.91
2022-11-16T16:38:31.652Z,101009.88
2022-11-16T16:41:07.082Z,101009.53
2022-11-16T16:43:37.743Z,100992.97
2022-11-16T16:46:08.716Z,100996.06
2022-11-16T16:48:44.368Z,101002.38
2022-11-16T16:51:15.341Z,100996.34
2022-11-16T16:53:45.552Z,100992.78
2022-11-16T16:56:19.033Z,100992.78
2022-11-16T16:58:49.306Z,100989.22
2022-11-16T17:01:19.877Z,100992.78
2022-11-16T17:03:50.203Z,100988.41
2022-11-16T17:06:21.220Z,100986.44
2022-11-16T17:08:51.498Z,100986.78
2022-11-16T17:11:21.884Z,100989.53
2022-11-16T17:13:52.648Z,100987.56
2022-11-16T17:16:24.422Z,100984.81
2022-11-16T17:19:00.587Z,100976.88
2022-11-16T17:21:30.902Z,100975.72
2022-11-16T17:24:01.229Z,100980.13
2022-11-16T17:26:31.799Z,100982.38
2022-11-16T17:29:02.120Z,100977.38
2022-11-16T17:31:32.365Z,100971.34
2022-11-16T17:34:03.606Z,100986.28
2022-11-16T17:36:34.018Z,100972.47
2022-11-16T17:39:04.296Z,100968.59
2022-11-16T17:41:35.814Z,100968.91
2022-11-16T17:44:06.204Z,100964.50
2022-11-16T17:46:36.596Z,100955.41
2022-11-16T17:49:06.860Z,100956.25
2022-11-16T17:51:37.067Z,100954.28
2022-11-16T17:54:07.491Z,100944.06
2022-11-16T17:56:37.801Z,100953.16
2022-11-16T17:59:08.074Z,100940.81
2022-11-16T18:01:38.142Z,100932.19
2022-11-16T18:04:08.234Z,100931.88
2022-11-16T18:06:38.226Z,100926.69
2022-11-16T18:09:08.262Z,100932.19
2022-11-16T18:11:38.259Z,100934.97
2022-11-16T18:14:08.471Z,100935.78
2022-11-16T18:16:38.734Z,100942.44
2022-11-16T18:19:09.651Z,100934.97
2022-11-16T18:21:44.075Z,100925.03
2022-11-16T18:24:16.969Z,100930.25
2022-11-16T18:26:47.214Z,100927.50
2022-11-16T18:29:18.089Z,100920.97
2022-11-16T18:31:48.352Z,100911.25
2022-11-16T18:34:18.970Z,100905.22
2022-11-16T18:36:51.150Z,100912.69
2022-11-16T18:39:21.471Z,100906.34
2022-11-16T18:41:55.470Z,100908.59
2022-11-16T18:44:25.809Z,100896.44
2022-11-16T18:46:55.871Z,100888.16
2022-11-16T18:49:25.968Z,100893.06
2022-11-16T18:51:56.222Z,100889.78
2022-11-16T18:54:26.428Z,100878.47
2022-11-16T18:56:58.131Z,100883.97
2022-11-16T18:59:28.364Z,100876.31
2022-11-16T19:01:58.526Z,100873.56
2022-11-16T19:04:30.586Z,100868.03
2022-11-16T19:07:00.960Z,100868.53
2022-11-16T19:09:31.170Z,100873.22
2022-11-16T19:12:01.536Z,100870.31
2022-11-16T19:14:31.869Z,100864.44
2022-11-16T19:17:03.037Z,100859.75
2022-11-16T19:19:33.466Z,100852.63
2022-11-16T19:22:03.717Z,100852.63
2022-11-16T19:24:33.940Z,100855.38
2022-11-16T19:27:04.349Z,100853.75
2022-11-16T19:29:34.590Z,100854.56
2022-11-16T19:32:04.756Z,100846.28
2022-11-16T19:34:34.769Z,100845.47
2022-11-16T19:37:04.777Z,100834.44
2022-11-16T19:39:34.764Z,100837.19
2022-11-16T19:42:04.799Z,100833.63
2022-11-16T19:44:34.854Z,100828.91
2022-11-16T19:47:05.103Z,100819.84
2022-11-16T19:49:35.345Z,100817.06
2022-11-16T19:52:05.534Z,100819.00
2022-11-16T19:54:35.567Z,100818.50
2022-11-16T19:57:05.606Z,100816.25
2022-11-16T19:59:36.457Z,100817.88
2022-11-16T20:02:06.802Z,100824.53
2022-11-16T20:04:38.722Z,100812.97
2022-11-16T20:07:09.708Z,100808.78
2022-11-16T20:09:39.825Z,100811.06
2022-11-16T20:12:09.946Z,100817.06
2022-11-16T20:14:40.227Z,100810.72
2022-11-16T20:17:10.299Z,100812.97
2022-11-16T20:19:40.372Z,100817.69
2022-11-16T20:22:11.230Z,100816.56
2022-11-16T20:24:41.478Z,100816.88
2022-11-16T20:27:11.456Z,100823.22
2022-11-16T20:29:41.641Z,100829.53
2022-11-16T20:32:11.809Z,100821.59
2022-11-16T20:34:41.938Z,100824.34
2022-11-16T20:37:12.224Z,100827.91
2022-11-16T20:39:44.082Z,100827.41
2022-11-16T20:42:14.646Z,100823.22
2022-11-16T20:44:44.939Z,100828.75
2022-11-16T20:47:15.310Z,100829.03
2022-11-16T20:49:45.537Z,100837.97
2022-11-16T20:52:15.598Z,100834.09
2022-11-16T20:54:45.897Z,100834.88
2022-11-16T20:57:16.180Z,100838.44
2022-11-16T20:59:46.464Z,100844.28
2022-11-16T21:02:16.473Z,100845.59
2022-11-16T21:04:46.522Z,100845.91
2022-11-16T21:07:16.627Z,100845.91
2022-11-16T21:10:06.367Z,100846.72
2022-11-16T21:12:54.785Z,100850.66
2022-11-16T21:15:24.973Z,100843.16
2022-11-16T21:17:55.218Z,100843.50
2022-11-16T21:20:27.855Z,100843.16
2022-11-16T21:22:58.326Z,100846.56
2022-11-16T21:25:28.454Z,100844.63
2022-11-16T21:27:59.250Z,100847.38
2022-11-16T21:30:29.498Z,100844.63
2022-11-16T21:32:59.717Z,100846.56
2022-11-16T21:35:29.706Z,100834.72
2022-11-16T21:38:00.136Z,100838.28
2022-11-16T21:40:30.331Z,100838.28
2022-11-16T21:43:00.313Z,100833.59
2022-11-16T21:45:30.343Z,100836.34
2022-11-16T21:48:00.720Z,100834.72
2022-11-16T21:50:32.268Z,100837.97
2022-11-16T21:53:03.197Z,100837.97
2022-11-16T21:55:33.901Z,100841.88
2022-11-16T21:58:08.268Z,100836.34
2022-11-16T22:00:38.529Z,100841.03
2022-11-16T22:03:08.568Z,100833.09
2022-11-16T22:05:57.213Z,100830.81
2022-11-16T22:08:27.475Z,100833.59
2022-11-16T22:10:57.643Z,100835.84
2022-11-16T22:13:27.941Z,100839.41
2022-11-16T22:15:58.634Z,100839.72
2022-11-16T22:18:28.754Z,100835.00
2022-11-16T22:20:59.150Z,100836.13
2022-11-16T22:23:30.253Z,100833.72
2022-11-16T22:26:04.620Z,100841.66
2022-11-16T22:28:36.027Z,100841.38
2022-11-16T22:31:13.122Z,100847.19
2022-11-16T22:33:44.074Z,100854.03
2022-11-16T22:36:15.447Z,100858.41
2022-11-16T22:38:46.677Z,100849.31
2022-11-16T22:41:16.975Z,100857.28
2022-11-16T22:43:47.501Z,100854.53
2022-11-16T22:46:17.918Z,100861.97
2022-11-16T22:48:49.985Z,100863.28
2022-11-16T22:53:11.991Z,100868.31
2022-11-16T22:55:42.265Z,100873.34
2022-11-16T22:58:12.260Z,100872.84
2022-11-16T23:00:42.504Z,100874.59
2022-11-16T23:03:12.782Z,100879.75
2022-11-16T23:05:42.779Z,100889.16
2022-11-16T23:08:12.956Z,100892.44
2022-11-16T23:11:02.922Z,100893.84
2022-11-16T23:13:51.654Z,100892.44
2022-11-16T23:16:21.814Z,100899.88
2022-11-16T23:18:51.840Z,100897.94
2022-11-16T23:21:40.371Z,100907.34
2022-11-16T23:24:33.995Z,100908.97
2022-11-16T23:27:24.452Z,100916.94
2022-11-16T23:29:55.658Z,100918.06
2022-11-16T23:32:25.853Z,100924.06
2022-11-16T23:34:55.966Z,100930.72
2022-11-16T23:37:26.492Z,100940.63
2022-11-16T23:39:56.813Z,100943.69
2022-11-16T23:42:45.647Z,100935.41
2022-11-16T23:45:16.063Z,100943.69
2022-11-16T23:47:46.675Z,100947.59
2022-11-16T23:50:17.255Z,100943.69
2022-11-16T23:52:47.277Z,100946.78
2022-11-16T23:55:17.374Z,100953.13
2022-11-16T23:57:47.407Z,100959.75
